sensor_id;sensor_type;location;lat;lon;timestamp;P1;durP1;ratioP1;P2;durP2;ratioP2
78895;SDS011;68284;59.124;37.910;2024-02-04T00:00:48;502.48;;;158.73;;
78895;SDS011;68284;59.124;37.910;2024-02-04T00:03:14;528.50;;;163.30;;
78895;SDS011;68284;59.124;37.910;2024-02-04T00:05:41;518.35;;;159.63;;
78895;SDS011;68284;59.124;37.910;2024-02-04T00:08:07;542.13;;;163.20;;
78895;SDS011;68284;59.124;37.910;2024-02-04T00:10:34;550.88;;;165.25;;
78895;SDS011;68284;59.124;37.910;2024-02-04T00:13:00;520.90;;;157.80;;
78895;SDS011;68284;59.124;37.910;2024-02-04T00:15:26;509.63;;;153.30;;
78895;SDS011;68284;59.124;37.910;2024-02-04T00:17:54;506.40;;;152.18;;
78895;SDS011;68284;59.124;37.910;2024-02-04T00:20:21;555.92;;;168.65;;
78895;SDS011;68284;59.124;37.910;2024-02-04T00:22:47;551.72;;;165.02;;
78895;SDS011;68284;59.124;37.910;2024-02-04T00:25:15;531.72;;;160.85;;
78895;SDS011;68284;59.124;37.910;2024-02-04T00:27:45;525.72;;;160.65;;
78895;SDS011;68284;59.124;37.910;2024-02-04T00:30:11;529.08;;;164.07;;
78895;SDS011;68284;59.124;37.910;2024-02-04T00:32:38;537.00;;;164.90;;
78895;SDS011;68284;59.124;37.910;2024-02-04T00:35:05;535.53;;;165.30;;
78895;SDS011;68284;59.124;37.910;2024-02-04T00:37:32;535.10;;;168.82;;
78895;SDS011;68284;59.124;37.910;2024-02-04T00:39:58;527.83;;;162.85;;
78895;SDS011;68284;59.124;37.910;2024-02-04T00:42:25;534.75;;;165.30;;
78895;SDS011;68284;59.124;37.910;2024-02-04T00:44:51;531.78;;;165.18;;
78895;SDS011;68284;59.124;37.910;2024-02-04T00:47:18;531.55;;;166.23;;
78895;SDS011;68284;59.124;37.910;2024-02-04T00:49:44;543.70;;;163.95;;
78895;SDS011;68284;59.124;37.910;2024-02-04T00:52:12;540.38;;;162.35;;
78895;SDS011;68284;59.124;37.910;2024-02-04T00:54:38;544.03;;;162.80;;
78895;SDS011;68284;59.124;37.910;2024-02-04T00:57:04;529.20;;;160.20;;
78895;SDS011;68284;59.124;37.910;2024-02-04T00:59:31;533.75;;;159.23;;
78895;SDS011;68284;59.124;37.910;2024-02-04T01:01:58;532.30;;;160.57;;
78895;SDS011;68284;59.124;37.910;2024-02-04T01:04:25;529.88;;;159.63;;
78895;SDS011;68284;59.124;37.910;2024-02-04T01:06:52;535.33;;;163.60;;
78895;SDS011;68284;59.124;37.910;2024-02-04T01:09:19;532.20;;;163.57;;
78895;SDS011;68284;59.124;37.910;2024-02-04T01:11:45;533.00;;;161.43;;
78895;SDS011;68284;59.124;37.910;2024-02-04T01:14:11;536.75;;;162.98;;
78895;SDS011;68284;59.124;37.910;2024-02-04T01:16:38;545.47;;;164.93;;
78895;SDS011;68284;59.124;37.910;2024-02-04T01:19:04;532.17;;;159.68;;
78895;SDS011;68284;59.124;37.910;2024-02-04T01:21:31;528.10;;;161.00;;
78895;SDS011;68284;59.124;37.910;2024-02-04T01:23:57;539.45;;;162.90;;
78895;SDS011;68284;59.124;37.910;2024-02-04T01:26:23;554.47;;;165.07;;
78895;SDS011;68284;59.124;37.910;2024-02-04T01:28:50;554.42;;;168.52;;
78895;SDS011;68284;59.124;37.910;2024-02-04T01:31:16;554.28;;;166.55;;
78895;SDS011;68284;59.124;37.910;2024-02-04T01:33:43;552.42;;;165.25;;
78895;SDS011;68284;59.124;37.910;2024-02-04T01:36:09;564.22;;;167.40;;
78895;SDS011;68284;59.124;37.910;2024-02-04T01:38:35;566.17;;;171.07;;
78895;SDS011;68284;59.124;37.910;2024-02-04T01:41:02;574.75;;;173.18;;
78895;SDS011;68284;59.124;37.910;2024-02-04T01:43:30;561.97;;;173.02;;
78895;SDS011;68284;59.124;37.910;2024-02-04T01:45:57;566.38;;;176.52;;
78895;SDS011;68284;59.124;37.910;2024-02-04T01:48:25;584.72;;;172.40;;
78895;SDS011;68284;59.124;37.910;2024-02-04T01:50:52;550.28;;;166.55;;
78895;SDS011;68284;59.124;37.910;2024-02-04T01:53:21;554.25;;;166.18;;
78895;SDS011;68284;59.124;37.910;2024-02-04T01:55:49;532.13;;;158.70;;
78895;SDS011;68284;59.124;37.910;2024-02-04T01:58:17;538.72;;;166.25;;
78895;SDS011;68284;59.124;37.910;2024-02-04T02:00:44;536.85;;;166.75;;
78895;SDS011;68284;59.124;37.910;2024-02-04T02:03:11;548.92;;;165.45;;
78895;SDS011;68284;59.124;37.910;2024-02-04T02:05:39;542.97;;;162.35;;
78895;SDS011;68284;59.124;37.910;2024-02-04T02:08:06;531.95;;;164.45;;
78895;SDS011;68284;59.124;37.910;2024-02-04T02:10:34;550.58;;;167.25;;
78895;SDS011;68284;59.124;37.910;2024-02-04T02:13:01;542.15;;;166.13;;
78895;SDS011;68284;59.124;37.910;2024-02-04T02:15:36;544.97;;;168.07;;
78895;SDS011;68284;59.124;37.910;2024-02-04T02:18:10;542.88;;;172.07;;
78895;SDS011;68284;59.124;37.910;2024-02-04T02:26:28;519.88;;;159.98;;
78895;SDS011;68284;59.124;37.910;2024-02-04T02:28:55;525.47;;;161.10;;
78895;SDS011;68284;59.124;37.910;2024-02-04T02:31:22;527.50;;;163.05;;
78895;SDS011;68284;59.124;37.910;2024-02-04T02:33:48;544.15;;;164.20;;
78895;SDS011;68284;59.124;37.910;2024-02-04T02:36:17;544.03;;;166.00;;
78895;SDS011;68284;59.124;37.910;2024-02-04T02:41:38;564.95;;;174.57;;
78895;SDS011;68284;59.124;37.910;2024-02-04T02:44:10;638.10;;;182.57;;
78895;SDS011;68284;59.124;37.910;2024-02-04T02:46:38;546.72;;;164.27;;
78895;SDS011;68284;59.124;37.910;2024-02-04T02:49:07;561.30;;;167.02;;
78895;SDS011;68284;59.124;37.910;2024-02-04T02:51:34;561.17;;;170.63;;
78895;SDS011;68284;59.124;37.910;2024-02-04T02:54:01;559.67;;;167.55;;
78895;SDS011;68284;59.124;37.910;2024-02-04T02:56:27;551.15;;;167.45;;
78895;SDS011;68284;59.124;37.910;2024-02-04T02:58:54;556.28;;;171.90;;
78895;SDS011;68284;59.124;37.910;2024-02-04T03:01:20;567.53;;;173.07;;
78895;SDS011;68284;59.124;37.910;2024-02-04T03:03:47;572.92;;;176.95;;
78895;SDS011;68284;59.124;37.910;2024-02-04T03:06:15;566.35;;;171.88;;
78895;SDS011;68284;59.124;37.910;2024-02-04T03:08:41;572.92;;;169.93;;
78895;SDS011;68284;59.124;37.910;2024-02-04T03:11:08;571.75;;;171.95;;
78895;SDS011;68284;59.124;37.910;2024-02-04T03:13:34;571.22;;;173.77;;
78895;SDS011;68284;59.124;37.910;2024-02-04T03:16:14;562.47;;;171.65;;
78895;SDS011;68284;59.124;37.910;2024-02-04T03:18:41;559.03;;;173.50;;
78895;SDS011;68284;59.124;37.910;2024-02-04T03:21:15;570.95;;;173.63;;
78895;SDS011;68284;59.124;37.910;2024-02-04T03:23:43;573.88;;;170.02;;
78895;SDS011;68284;59.124;37.910;2024-02-04T03:26:10;575.95;;;171.15;;
78895;SDS011;68284;59.124;37.910;2024-02-04T03:28:37;556.60;;;170.15;;
78895;SDS011;68284;59.124;37.910;2024-02-04T03:31:04;548.33;;;167.23;;
78895;SDS011;68284;59.124;37.910;2024-02-04T03:33:31;553.78;;;166.02;;
78895;SDS011;68284;59.124;37.910;2024-02-04T03:35:57;560.00;;;170.73;;
78895;SDS011;68284;59.124;37.910;2024-02-04T03:38:24;524.33;;;160.07;;
78895;SDS011;68284;59.124;37.910;2024-02-04T03:40:51;531.47;;;162.90;;
78895;SDS011;68284;59.124;37.910;2024-02-04T03:43:18;533.55;;;159.98;;
78895;SDS011;68284;59.124;37.910;2024-02-04T03:45:45;531.35;;;162.27;;
78895;SDS011;68284;59.124;37.910;2024-02-04T03:48:12;530.17;;;158.13;;
78895;SDS011;68284;59.124;37.910;2024-02-04T03:50:38;527.90;;;158.00;;
78895;SDS011;68284;59.124;37.910;2024-02-04T03:53:05;528.83;;;160.13;;
78895;SDS011;68284;59.124;37.910;2024-02-04T03:58:00;576.17;;;173.27;;
78895;SDS011;68284;59.124;37.910;2024-02-04T04:00:26;500.92;;;154.07;;
78895;SDS011;68284;59.124;37.910;2024-02-04T04:02:52;492.38;;;150.50;;
78895;SDS011;68284;59.124;37.910;2024-02-04T04:07:46;494.25;;;152.23;;
78895;SDS011;68284;59.124;37.910;2024-02-04T04:10:12;495.50;;;154.27;;
78895;SDS011;68284;59.124;37.910;2024-02-04T04:12:39;496.33;;;153.93;;
78895;SDS011;68284;59.124;37.910;2024-02-04T04:15:06;497.65;;;153.48;;
78895;SDS011;68284;59.124;37.910;2024-02-04T04:17:32;491.92;;;152.35;;
78895;SDS011;68284;59.124;37.910;2024-02-04T04:19:58;496.80;;;151.23;;
78895;SDS011;68284;59.124;37.910;2024-02-04T04:22:25;497.38;;;154.27;;
78895;SDS011;68284;59.124;37.910;2024-02-04T04:24:52;495.95;;;156.00;;
78895;SDS011;68284;59.124;37.910;2024-02-04T04:27:19;499.58;;;153.23;;
78895;SDS011;68284;59.124;37.910;2024-02-04T04:29:45;496.52;;;153.77;;
78895;SDS011;68284;59.124;37.910;2024-02-04T04:32:11;499.75;;;149.80;;
78895;SDS011;68284;59.124;37.910;2024-02-04T04:34:38;502.27;;;155.05;;
78895;SDS011;68284;59.124;37.910;2024-02-04T04:37:04;501.80;;;150.32;;
78895;SDS011;68284;59.124;37.910;2024-02-04T04:39:31;503.67;;;150.70;;
78895;SDS011;68284;59.124;37.910;2024-02-04T04:41:57;499.02;;;151.07;;
78895;SDS011;68284;59.124;37.910;2024-02-04T04:44:23;497.33;;;151.38;;
78895;SDS011;68284;59.124;37.910;2024-02-04T04:46:50;626.70;;;181.65;;
78895;SDS011;68284;59.124;37.910;2024-02-04T04:49:16;793.58;;;193.23;;
78895;SDS011;68284;59.124;37.910;2024-02-04T04:51:46;751.75;;;176.45;;
78895;SDS011;68284;59.124;37.910;2024-02-04T04:54:12;607.45;;;176.30;;
78895;SDS011;68284;59.124;37.910;2024-02-04T04:56:39;594.80;;;174.82;;
78895;SDS011;68284;59.124;37.910;2024-02-04T04:59:06;643.95;;;187.20;;
78895;SDS011;68284;59.124;37.910;2024-02-04T05:01:33;654.35;;;181.43;;
78895;SDS011;68284;59.124;37.910;2024-02-04T05:03:59;652.53;;;187.02;;
78895;SDS011;68284;59.124;37.910;2024-02-04T05:06:26;624.90;;;182.87;;
78895;SDS011;68284;59.124;37.910;2024-02-04T05:08:52;625.55;;;182.80;;
78895;SDS011;68284;59.124;37.910;2024-02-04T05:11:19;612.42;;;180.07;;
78895;SDS011;68284;59.124;37.910;2024-02-04T05:13:45;634.53;;;182.75;;
78895;SDS011;68284;59.124;37.910;2024-02-04T05:16:13;650.55;;;182.93;;
78895;SDS011;68284;59.124;37.910;2024-02-04T05:18:39;642.83;;;184.40;;
78895;SDS011;68284;59.124;37.910;2024-02-04T05:21:05;642.78;;;185.30;;
78895;SDS011;68284;59.124;37.910;2024-02-04T05:23:32;642.40;;;185.55;;
78895;SDS011;68284;59.124;37.910;2024-02-04T05:26:02;637.45;;;183.90;;
78895;SDS011;68284;59.124;37.910;2024-02-04T05:28:30;625.70;;;185.52;;
78895;SDS011;68284;59.124;37.910;2024-02-04T05:30:57;634.75;;;180.45;;
78895;SDS011;68284;59.124;37.910;2024-02-04T05:33:23;632.95;;;183.65;;
78895;SDS011;68284;59.124;37.910;2024-02-04T05:35:50;626.70;;;184.48;;
78895;SDS011;68284;59.124;37.910;2024-02-04T05:38:16;632.40;;;179.13;;
78895;SDS011;68284;59.124;37.910;2024-02-04T05:40:43;705.00;;;185.82;;
78895;SDS011;68284;59.124;37.910;2024-02-04T05:43:09;781.60;;;174.20;;
78895;SDS011;68284;59.124;37.910;2024-02-04T05:45:39;699.13;;;184.87;;
78895;SDS011;68284;59.124;37.910;2024-02-04T05:48:09;670.67;;;184.60;;
78895;SDS011;68284;59.124;37.910;2024-02-04T05:50:36;636.33;;;184.43;;
78895;SDS011;68284;59.124;37.910;2024-02-04T05:53:02;632.05;;;185.63;;
78895;SDS011;68284;59.124;37.910;2024-02-04T05:55:29;627.28;;;184.70;;
78895;SDS011;68284;59.124;37.910;2024-02-04T05:57:56;622.70;;;184.32;;
78895;SDS011;68284;59.124;37.910;2024-02-04T06:00:23;629.30;;;179.82;;
78895;SDS011;68284;59.124;37.910;2024-02-04T06:02:50;618.15;;;183.90;;
78895;SDS011;68284;59.124;37.910;2024-02-04T06:05:16;616.28;;;182.18;;
78895;SDS011;68284;59.124;37.910;2024-02-04T06:07:43;621.05;;;181.80;;
78895;SDS011;68284;59.124;37.910;2024-02-04T06:10:09;621.35;;;184.07;;
78895;SDS011;68284;59.124;37.910;2024-02-04T06:12:36;602.42;;;179.00;;
78895;SDS011;68284;59.124;37.910;2024-02-04T06:15:04;615.55;;;178.35;;
78895;SDS011;68284;59.124;37.910;2024-02-04T06:17:33;669.60;;;183.15;;
78895;SDS011;68284;59.124;37.910;2024-02-04T06:19:59;636.85;;;180.73;;
78895;SDS011;68284;59.124;37.910;2024-02-04T06:24:53;632.05;;;181.30;;
78895;SDS011;68284;59.124;37.910;2024-02-04T06:27:20;613.88;;;178.25;;
78895;SDS011;68284;59.124;37.910;2024-02-04T06:29:46;613.70;;;182.70;;
78895;SDS011;68284;59.124;37.910;2024-02-04T06:32:12;619.58;;;180.10;;
78895;SDS011;68284;59.124;37.910;2024-02-04T06:34:39;609.95;;;176.77;;
78895;SDS011;68284;59.124;37.910;2024-02-04T06:37:05;624.58;;;184.10;;
78895;SDS011;68284;59.124;37.910;2024-02-04T06:39:32;630.08;;;182.93;;
78895;SDS011;68284;59.124;37.910;2024-02-04T06:41:58;621.72;;;183.68;;
78895;SDS011;68284;59.124;37.910;2024-02-04T06:44:24;630.10;;;184.90;;
78895;SDS011;68284;59.124;37.910;2024-02-04T06:46:51;636.30;;;187.65;;
78895;SDS011;68284;59.124;37.910;2024-02-04T06:49:17;636.17;;;181.18;;
78895;SDS011;68284;59.124;37.910;2024-02-04T06:51:44;614.28;;;184.10;;
78895;SDS011;68284;59.124;37.910;2024-02-04T06:54:11;622.13;;;180.30;;
78895;SDS011;68284;59.124;37.910;2024-02-04T06:56:38;609.88;;;175.15;;
78895;SDS011;68284;59.124;37.910;2024-02-04T06:59:04;606.92;;;175.50;;
78895;SDS011;68284;59.124;37.910;2024-02-04T07:01:31;609.13;;;175.57;;
78895;SDS011;68284;59.124;37.910;2024-02-04T07:03:58;602.95;;;174.68;;
78895;SDS011;68284;59.124;37.910;2024-02-04T07:06:24;603.30;;;178.27;;
78895;SDS011;68284;59.124;37.910;2024-02-04T07:08:51;609.60;;;174.57;;
78895;SDS011;68284;59.124;37.910;2024-02-04T07:11:17;602.35;;;176.27;;
78895;SDS011;68284;59.124;37.910;2024-02-04T07:13:44;614.28;;;182.63;;
78895;SDS011;68284;59.124;37.910;2024-02-04T07:16:10;616.63;;;178.05;;
78895;SDS011;68284;59.124;37.910;2024-02-04T07:18:36;621.50;;;183.77;;
78895;SDS011;68284;59.124;37.910;2024-02-04T07:21:03;623.17;;;178.95;;
78895;SDS011;68284;59.124;37.910;2024-02-04T07:28:22;622.42;;;184.65;;
78895;SDS011;68284;59.124;37.910;2024-02-04T07:30:49;629.22;;;184.18;;
78895;SDS011;68284;59.124;37.910;2024-02-04T07:33:15;631.20;;;189.65;;
78895;SDS011;68284;59.124;37.910;2024-02-04T07:35:41;625.38;;;185.27;;
78895;SDS011;68284;59.124;37.910;2024-02-04T07:38:08;621.63;;;185.27;;
78895;SDS011;68284;59.124;37.910;2024-02-04T07:40:35;629.88;;;190.05;;
78895;SDS011;68284;59.124;37.910;2024-02-04T07:43:02;628.28;;;185.98;;
78895;SDS011;68284;59.124;37.910;2024-02-04T07:45:30;627.03;;;181.02;;
78895;SDS011;68284;59.124;37.910;2024-02-04T07:47:57;621.28;;;182.70;;
78895;SDS011;68284;59.124;37.910;2024-02-04T07:50:23;628.47;;;183.07;;
78895;SDS011;68284;59.124;37.910;2024-02-04T07:52:50;623.20;;;179.63;;
78895;SDS011;68284;59.124;37.910;2024-02-04T07:55:18;627.78;;;184.80;;
78895;SDS011;68284;59.124;37.910;2024-02-04T07:57:44;635.95;;;184.02;;
78895;SDS011;68284;59.124;37.910;2024-02-04T08:00:11;640.75;;;190.30;;
78895;SDS011;68284;59.124;37.910;2024-02-04T08:02:38;663.63;;;186.93;;
78895;SDS011;68284;59.124;37.910;2024-02-04T08:07:31;662.45;;;186.38;;
78895;SDS011;68284;59.124;37.910;2024-02-04T08:09:58;661.45;;;189.82;;
78895;SDS011;68284;59.124;37.910;2024-02-04T08:12:24;662.85;;;184.77;;
78895;SDS011;68284;59.124;37.910;2024-02-04T08:14:51;663.92;;;186.57;;
78895;SDS011;68284;59.124;37.910;2024-02-04T08:17:18;667.25;;;185.77;;
78895;SDS011;68284;59.124;37.910;2024-02-04T08:19:44;658.33;;;183.98;;
78895;SDS011;68284;59.124;37.910;2024-02-04T08:22:10;669.78;;;190.65;;
78895;SDS011;68284;59.124;37.910;2024-02-04T08:24:37;659.55;;;190.07;;
78895;SDS011;68284;59.124;37.910;2024-02-04T08:27:04;665.55;;;184.65;;
78895;SDS011;68284;59.124;37.910;2024-02-04T08:29:31;666.33;;;185.50;;
78895;SDS011;68284;59.124;37.910;2024-02-04T08:31:57;672.53;;;186.18;;
78895;SDS011;68284;59.124;37.910;2024-02-04T08:34:24;688.90;;;187.32;;
78895;SDS011;68284;59.124;37.910;2024-02-04T08:36:52;707.40;;;189.00;;
78895;SDS011;68284;59.124;37.910;2024-02-04T08:39:20;703.72;;;190.80;;
78895;SDS011;68284;59.124;37.910;2024-02-04T08:41:46;733.15;;;186.32;;
78895;SDS011;68284;59.124;37.910;2024-02-04T08:44:12;797.35;;;204.10;;
78895;SDS011;68284;59.124;37.910;2024-02-04T08:46:39;656.78;;;171.07;;
78895;SDS011;68284;59.124;37.910;2024-02-04T08:49:06;587.17;;;154.27;;
78895;SDS011;68284;59.124;37.910;2024-02-04T08:51:32;660.55;;;173.95;;
78895;SDS011;68284;59.124;37.910;2024-02-04T08:53:59;647.13;;;173.13;;
78895;SDS011;68284;59.124;37.910;2024-02-04T08:56:26;551.33;;;160.27;;
78895;SDS011;68284;59.124;37.910;2024-02-04T08:58:52;541.00;;;155.13;;
78895;SDS011;68284;59.124;37.910;2024-02-04T09:01:18;567.42;;;159.88;;
78895;SDS011;68284;59.124;37.910;2024-02-04T09:03:45;606.55;;;175.75;;
78895;SDS011;68284;59.124;37.910;2024-02-04T09:06:12;656.78;;;181.77;;
78895;SDS011;68284;59.124;37.910;2024-02-04T09:08:38;662.15;;;188.00;;
78895;SDS011;68284;59.124;37.910;2024-02-04T09:11:04;653.58;;;184.02;;
78895;SDS011;68284;59.124;37.910;2024-02-04T09:13:31;585.10;;;169.55;;
78895;SDS011;68284;59.124;37.910;2024-02-04T09:15:58;648.25;;;183.65;;
78895;SDS011;68284;59.124;37.910;2024-02-04T09:18:24;615.28;;;175.95;;
78895;SDS011;68284;59.124;37.910;2024-02-04T09:20:51;595.60;;;167.88;;
78895;SDS011;68284;59.124;37.910;2024-02-04T09:23:17;594.03;;;170.55;;
78895;SDS011;68284;59.124;37.910;2024-02-04T09:25:44;611.72;;;172.73;;
78895;SDS011;68284;59.124;37.910;2024-02-04T09:28:10;603.90;;;169.40;;
78895;SDS011;68284;59.124;37.910;2024-02-04T09:30:36;616.13;;;174.68;;
78895;SDS011;68284;59.124;37.910;2024-02-04T09:33:03;597.50;;;167.10;;
78895;SDS011;68284;59.124;37.910;2024-02-04T09:35:29;585.63;;;164.48;;
78895;SDS011;68284;59.124;37.910;2024-02-04T09:37:56;588.88;;;166.10;;
78895;SDS011;68284;59.124;37.910;2024-02-04T09:40:22;606.55;;;168.48;;
78895;SDS011;68284;59.124;37.910;2024-02-04T09:42:49;602.00;;;174.10;;
78895;SDS011;68284;59.124;37.910;2024-02-04T09:45:15;605.30;;;170.70;;
78895;SDS011;68284;59.124;37.910;2024-02-04T09:47:42;611.47;;;174.07;;
78895;SDS011;68284;59.124;37.910;2024-02-04T09:50:11;604.75;;;172.55;;
78895;SDS011;68284;59.124;37.910;2024-02-04T09:52:39;600.67;;;172.38;;
78895;SDS011;68284;59.124;37.910;2024-02-04T09:55:10;601.80;;;168.63;;
78895;SDS011;68284;59.124;37.910;2024-02-04T09:57:39;605.15;;;174.10;;
78895;SDS011;68284;59.124;37.910;2024-02-04T10:00:05;606.72;;;173.73;;
78895;SDS011;68284;59.124;37.910;2024-02-04T10:02:37;605.65;;;169.50;;
78895;SDS011;68284;59.124;37.910;2024-02-04T10:05:05;614.97;;;171.68;;
78895;SDS011;68284;59.124;37.910;2024-02-04T10:07:33;604.20;;;169.40;;
78895;SDS011;68284;59.124;37.910;2024-02-04T10:10:00;607.00;;;177.88;;
78895;SDS011;68284;59.124;37.910;2024-02-04T10:12:27;605.88;;;171.30;;
78895;SDS011;68284;59.124;37.910;2024-02-04T10:14:53;605.97;;;172.27;;
78895;SDS011;68284;59.124;37.910;2024-02-04T10:17:20;623.60;;;180.70;;
78895;SDS011;68284;59.124;37.910;2024-02-04T10:19:47;604.47;;;177.38;;
78895;SDS011;68284;59.124;37.910;2024-02-04T10:22:14;613.38;;;175.48;;
78895;SDS011;68284;59.124;37.910;2024-02-04T10:24:43;603.67;;;172.07;;
78895;SDS011;68284;59.124;37.910;2024-02-04T10:27:10;607.90;;;179.45;;
78895;SDS011;68284;59.124;37.910;2024-02-04T10:29:36;608.10;;;173.88;;
78895;SDS011;68284;59.124;37.910;2024-02-04T10:32:03;616.50;;;176.02;;
78895;SDS011;68284;59.124;37.910;2024-02-04T10:34:29;638.20;;;186.65;;
78895;SDS011;68284;59.124;37.910;2024-02-04T10:36:56;618.58;;;174.20;;
78895;SDS011;68284;59.124;37.910;2024-02-04T10:39:23;604.92;;;176.00;;
78895;SDS011;68284;59.124;37.910;2024-02-04T10:41:50;605.50;;;174.02;;
78895;SDS011;68284;59.124;37.910;2024-02-04T10:44:21;618.78;;;197.10;;
78895;SDS011;68284;59.124;37.910;2024-02-04T10:46:50;587.03;;;183.32;;
78895;SDS011;68284;59.124;37.910;2024-02-04T10:49:18;588.63;;;184.13;;
78895;SDS011;68284;59.124;37.910;2024-02-04T10:51:45;588.28;;;178.52;;
78895;SDS011;68284;59.124;37.910;2024-02-04T10:54:16;582.22;;;180.57;;
78895;SDS011;68284;59.124;37.910;2024-02-04T10:56:44;593.05;;;184.73;;
78895;SDS011;68284;59.124;37.910;2024-02-04T10:59:13;593.13;;;186.32;;
78895;SDS011;68284;59.124;37.910;2024-02-04T11:01:43;586.53;;;173.68;;
78895;SDS011;68284;59.124;37.910;2024-02-04T11:04:14;579.45;;;168.70;;
78895;SDS011;68284;59.124;37.910;2024-02-04T11:06:42;582.40;;;169.18;;
78895;SDS011;68284;59.124;37.910;2024-02-04T11:09:11;579.40;;;164.82;;
78895;SDS011;68284;59.124;37.910;2024-02-04T11:11:40;585.05;;;169.85;;
78895;SDS011;68284;59.124;37.910;2024-02-04T11:14:11;583.83;;;168.23;;
78895;SDS011;68284;59.124;37.910;2024-02-04T11:16:55;597.33;;;169.07;;
78895;SDS011;68284;59.124;37.910;2024-02-04T11:28:03;583.83;;;168.15;;
78895;SDS011;68284;59.124;37.910;2024-02-04T11:30:33;585.60;;;167.30;;
78895;SDS011;68284;59.124;37.910;2024-02-04T11:33:05;572.10;;;166.48;;
78895;SDS011;68284;59.124;37.910;2024-02-04T11:35:32;569.83;;;168.18;;
78895;SDS011;68284;59.124;37.910;2024-02-04T11:38:00;575.80;;;163.68;;
78895;SDS011;68284;59.124;37.910;2024-02-04T11:43:04;566.65;;;166.88;;
78895;SDS011;68284;59.124;37.910;2024-02-04T11:45:41;563.17;;;162.57;;
78895;SDS011;68284;59.124;37.910;2024-02-04T11:48:09;565.03;;;167.73;;
78895;SDS011;68284;59.124;37.910;2024-02-04T11:50:39;568.72;;;164.38;;
78895;SDS011;68284;59.124;37.910;2024-02-04T11:53:09;566.15;;;165.02;;
78895;SDS011;68284;59.124;37.910;2024-02-04T11:55:39;583.42;;;164.93;;
78895;SDS011;68284;59.124;37.910;2024-02-04T11:58:06;560.75;;;163.40;;
78895;SDS011;68284;59.124;37.910;2024-02-04T12:00:33;558.47;;;157.57;;
78895;SDS011;68284;59.124;37.910;2024-02-04T12:05:29;553.97;;;163.85;;
78895;SDS011;68284;59.124;37.910;2024-02-04T12:07:58;556.30;;;160.90;;
78895;SDS011;68284;59.124;37.910;2024-02-04T12:10:27;551.80;;;162.07;;
78895;SDS011;68284;59.124;37.910;2024-02-04T12:12:56;548.28;;;160.20;;
78895;SDS011;68284;59.124;37.910;2024-02-04T12:15:23;554.40;;;158.85;;
78895;SDS011;68284;59.124;37.910;2024-02-04T12:17:50;550.83;;;162.10;;
78895;SDS011;68284;59.124;37.910;2024-02-04T12:20:17;554.10;;;159.88;;
78895;SDS011;68284;59.124;37.910;2024-02-04T12:22:43;551.80;;;161.50;;
78895;SDS011;68284;59.124;37.910;2024-02-04T12:25:10;547.63;;;162.45;;
78895;SDS011;68284;59.124;37.910;2024-02-04T12:27:37;553.35;;;162.55;;
78895;SDS011;68284;59.124;37.910;2024-02-04T12:30:04;548.55;;;157.43;;
78895;SDS011;68284;59.124;37.910;2024-02-04T12:32:31;553.53;;;163.32;;
78895;SDS011;68284;59.124;37.910;2024-02-04T12:34:57;551.80;;;157.70;;
78895;SDS011;68284;59.124;37.910;2024-02-04T12:37:24;551.78;;;158.38;;
78895;SDS011;68284;59.124;37.910;2024-02-04T12:39:52;545.15;;;155.90;;
78895;SDS011;68284;59.124;37.910;2024-02-04T12:42:18;550.45;;;159.43;;
78895;SDS011;68284;59.124;37.910;2024-02-04T12:44:47;549.08;;;157.52;;
78895;SDS011;68284;59.124;37.910;2024-02-04T12:47:18;545.70;;;159.27;;
78895;SDS011;68284;59.124;37.910;2024-02-04T12:49:45;543.13;;;160.13;;
78895;SDS011;68284;59.124;37.910;2024-02-04T12:52:12;541.95;;;156.57;;
78895;SDS011;68284;59.124;37.910;2024-02-04T12:54:43;539.53;;;157.82;;
78895;SDS011;68284;59.124;37.910;2024-02-04T12:57:10;538.05;;;156.23;;
78895;SDS011;68284;59.124;37.910;2024-02-04T12:59:47;538.83;;;158.55;;
78895;SDS011;68284;59.124;37.910;2024-02-04T13:02:13;543.17;;;159.50;;
78895;SDS011;68284;59.124;37.910;2024-02-04T13:04:41;548.75;;;158.20;;
78895;SDS011;68284;59.124;37.910;2024-02-04T13:07:15;548.92;;;159.60;;
78895;SDS011;68284;59.124;37.910;2024-02-04T13:09:44;550.60;;;158.85;;
78895;SDS011;68284;59.124;37.910;2024-02-04T13:12:11;546.45;;;157.82;;
78895;SDS011;68284;59.124;37.910;2024-02-04T13:14:41;544.88;;;159.80;;
78895;SDS011;68284;59.124;37.910;2024-02-04T13:17:08;544.20;;;155.35;;
78895;SDS011;68284;59.124;37.910;2024-02-04T13:19:35;535.72;;;157.77;;
78895;SDS011;68284;59.124;37.910;2024-02-04T13:22:06;537.78;;;156.25;;
78895;SDS011;68284;59.124;37.910;2024-02-04T13:24:35;534.25;;;154.82;;
78895;SDS011;68284;59.124;37.910;2024-02-04T13:27:02;540.65;;;153.95;;
78895;SDS011;68284;59.124;37.910;2024-02-04T13:29:30;540.80;;;153.95;;
78895;SDS011;68284;59.124;37.910;2024-02-04T13:31:56;535.90;;;154.02;;
78895;SDS011;68284;59.124;37.910;2024-02-04T13:34:23;534.65;;;159.32;;
78895;SDS011;68284;59.124;37.910;2024-02-04T13:36:49;537.90;;;153.20;;
78895;SDS011;68284;59.124;37.910;2024-02-04T13:39:17;541.53;;;154.68;;
78895;SDS011;68284;59.124;37.910;2024-02-04T13:41:43;538.55;;;158.98;;
78895;SDS011;68284;59.124;37.910;2024-02-04T13:44:11;541.13;;;159.23;;
78895;SDS011;68284;59.124;37.910;2024-02-04T13:46:39;537.35;;;157.75;;
78895;SDS011;68284;59.124;37.910;2024-02-04T13:49:08;538.42;;;155.40;;
78895;SDS011;68284;59.124;37.910;2024-02-04T13:51:35;540.60;;;155.00;;
78895;SDS011;68284;59.124;37.910;2024-02-04T13:54:02;536.78;;;158.70;;
78895;SDS011;68284;59.124;37.910;2024-02-04T13:56:28;539.33;;;155.45;;
78895;SDS011;68284;59.124;37.910;2024-02-04T13:58:55;536.53;;;154.50;;
78895;SDS011;68284;59.124;37.910;2024-02-04T14:01:22;535.40;;;157.30;;
78895;SDS011;68284;59.124;37.910;2024-02-04T14:03:48;542.92;;;157.18;;
78895;SDS011;68284;59.124;37.910;2024-02-04T14:06:16;537.05;;;159.80;;
78895;SDS011;68284;59.124;37.910;2024-02-04T14:08:42;538.45;;;160.50;;
78895;SDS011;68284;59.124;37.910;2024-02-04T14:11:08;540.30;;;157.10;;
78895;SDS011;68284;59.124;37.910;2024-02-04T14:13:35;535.55;;;156.73;;
78895;SDS011;68284;59.124;37.910;2024-02-04T14:16:01;534.20;;;161.00;;
78895;SDS011;68284;59.124;37.910;2024-02-04T14:18:28;543.47;;;156.77;;
78895;SDS011;68284;59.124;37.910;2024-02-04T14:20:54;539.13;;;158.25;;